This demonstration page uses our WeatherBlox Daily Observations layout. Learn more.

Left ArrowRight Arrow

38.83388, -104.82136

Hourly Observations for April 5, 2022

Temp ( °F °C ) Dew Point ( °F °C ) Humidity (%) Winds ( mph kmh ) Pressure ( in mb ) Visibility ( mi km ) Precip ( " mm )
12:58 am 00:58 Clear 51 10.4 16 -8.8 25 25 ESE 3 6 N/A 10 16 0.00 0.00
1:58 am 01:58 Clear 50 10.1 17 -8.1 27 27 SW 14 22 N/A 10 16 0.00 0.00
2:58 am 02:58 Clear 50 10.2 19 -7.1 29 29 Calm N/A 10 16 0.00 0.00
3:58 am 03:58 Clear 51 10.4 19 -7.3 28 28 SW 3 6 N/A 10 16 0.00 0.00
4:58 am 04:58 Clear 50 10.1 19 -7.1 29 29 WSW 7 11 N/A 10 16 0.00 0.00
5:58 am 05:58 Clear 51 10.4 18 -7.8 27 27 SSW 8 13 N/A 10 16 0.00 0.00
6:30 am 06:30 Clear 50 10 18 -8 28 28 ENE 23 37 N/A 10 16 0.00 0.00
6:41 am 06:41 Sunny 54 12 18 -8 24 24 NE 18 30 N/A 10 16 0.00 0.00
6:52 am 06:52 Sunny 55 13 18 -8 23 23 E 14 22 N/A 10 16 0.00 0.00
6:58 am 06:58 Sunny 55 12.8 18 -7.8 23 23 E 6 9 N/A 10 16 0.00 0.00
7:03 am 07:03 Sunny 55 13 18 -8 23 23 NE 14 22 N/A 10 16 0.00 0.00
7:08 am 07:08 Sunny 55 13 18 -8 23 23 WNW 13 20 N/A 10 16 0.00 0.00
7:33 am 07:33 Sunny 57 14 19 -7 23 23 ENE 17 28 N/A 10 16 0.00 0.00
7:58 am 07:58 Sunny 58 14.3 18 -7.8 21 21 NNE 9 15 N/A 10 16 0.00 0.00
8:08 am 08:08 Sunny 57 14 19 -7 23 23 NE 20 31 N/A 10 16 0.00 0.00
8:58 am 08:58 Sunny 60 15.6 21 -6.1 22 22 NE 20 31 N/A 10 16 0.00 0.00
9:09 am 09:09 Sunny 61 16 21 -6 22 22 ENE 22 35 N/A 10 16 0.00 0.00
9:19 am 09:19 Sunny 61 16 19 -7 20 20 NE 14 22 N/A 10 16 0.00 0.00
9:23 am 09:23 Sunny 61 16 19 -7 20 20 NE 17 28 N/A 10 16 0.00 0.00
9:28 am 09:28 Sunny 61 16 19 -7 20 20 ENE 13 20 N/A 10 16 0.00 0.00
9:38 am 09:38 Sunny 61 16 19 -7 20 20 NE 14 22 N/A 10 16 0.00 0.00
9:58 am 09:58 Sunny 63 17 21 -6.1 20 20 ENE 12 19 N/A 10 16 0.00 0.00
10:12 am 10:12 Sunny 61 16 21 -6 22 22 N 15 24 N/A 10 16 0.00 0.00
10:44 am 10:44 Sunny 61 16 19 -7 20 20 NNW 14 22 N/A 10 16 0.00 0.00
10:58 am 10:58 Sunny 61 16.1 20 -6.9 20 20 NW 15 24 N/A 10 16 0.00 0.00
11:08 am 11:08 Sunny 61 16 19 -7 20 20 N 21 33 N/A 10 16 0.00 0.00
11:13 am 11:13 Sunny 61 16 19 -7 20 20 N 18 30 N/A 10 16 0.00 0.00
11:39 am 11:39 Sunny 64 18 21 -6 19 19 NE 13 20 N/A 10 16 0.00 0.00
11:49 am 11:49 Sunny 66 19 19 -7 17 17 NE 13 20 N/A 10 16 0.00 0.00
11:58 am 11:58 Sunny 64 17.5 17 -8.6 16 16 NNE 5 7 N/A 10 16 0.00 0.00
12:13 pm 12:13 Sunny 66 19 19 -7 17 17 NNW 14 22 N/A 10 16 0.00 0.00
12:38 pm 12:38 Sunny 64 18 23 -5 21 21 NE 13 20 N/A 10 16 0.00 0.00
12:58 pm 12:58 Sunny 63 17.1 24 -4.2 23 23 N 10 17 N/A 10 16 0.00 0.00
1:31 pm 13:31 Sunny 64 18 21 -6 19 19 NE 13 20 N/A 10 16 0.00 0.00
1:42 pm 13:42 Sunny 63 17 21 -6 20 20 NNE 16 26 N/A 10 16 0.00 0.00
1:58 pm 13:58 Sunny 65 18.5 22 -5.6 19 19 ENE 9 15 N/A 10 16 0.00 0.00
2:05 pm 14:05 Sunny 64 18 23 -5 21 21 ENE 13 20 N/A 10 16 0.00 0.00
2:58 pm 14:58 Sunny 62 16.9 22 -5.6 21 21 ENE 12 19 29.39 995 10 16 0.00 0.00
3:51 pm 15:51 Mostly Sunny 61 16 19 -7 20 20 ENE 21 33 29.37 995 10 16 0.00 0.00
3:56 pm 15:56 Mostly Sunny 61 16 19 -7 20 20 ESE 16 26 29.37 995 10 16 0.00 0.00
3:58 pm 15:58 Mostly Sunny 61 16.3 20 -6.7 20 20 ESE 14 22 29.39 995 10 16 0.00 0.00
4:03 pm 16:03 Mostly Sunny 61 16 19 -7 20 20 ENE 16 26 29.39 995 10 16 0.00 0.00
4:10 pm 16:10 Sunny 61 16 21 -6 22 22 NE 15 24 29.41 996 10 16 0.00 0.00
4:33 pm 16:33 Mostly Sunny 63 17 21 -6 20 20 E 20 31 29.42 996 10 16 0.00 0.00
4:48 pm 16:48 Mostly Sunny 59 15 21 -6 23 23 ESE 21 33 29.42 996 10 16 0.00 0.00
4:58 pm 16:58 Sunny 59 14.9 21 -6.1 23 23 E 24 39 29.37 995 10 16 0.00 0.00
5:17 pm 17:17 Mostly Sunny 57 14 19 -7 23 23 ENE 13 20 29.39 995 10 16 0.00 0.00
5:18 pm 17:18 Mostly Sunny 57 14 19 -7 23 23 ESE 17 28 29.39 995 10 16 0.00 0.00
5:58 pm 17:58 Partly Cloudy 48 9 23 -4.9 37 37 ESE 8 13 29.41 996 10 16 0.00 0.00
6:58 pm 18:58 Sunny 45 7.1 22 -5.3 41 41 E 9 15 29.44 997 10 16 0.00 0.00
7:58 pm 19:58 Mostly Clear 41 4.8 18 -8 39 39 E 8 13 29.45 997 10 16 0.00 0.00
8:58 pm 20:58 undefined N/A N/A N/A ESE 9 15 N/A 10 16 0.00 0.00
9:58 pm 21:58 Mostly Clear 36 2.4 15 -9.2 42 42 E 9 15 29.53 1000 10 16 0.00 0.00
10:58 pm 22:58 Mostly Cloudy 35 1.5 15 -9.2 45 45 E 12 19 29.56 1001 10 16 0.00 0.00
11:58 pm 23:58 Cloudy 34 1 18 -8 51 51 NE 7 11 29.58 1002 10 16 0.00 0.00

Powered by AerisWeather